Time;durP1;ratioP1;P1;durP2;ratioP2;P2;SDS_P1;SDS_P2;PMS_P1;PMS_P2;Temp;Humidity;BMP_temperature;BMP_pressure;BME280_temperature;BME280_humidity;BME280_pressure;Samples;Min_cycle;Max_cycle;Signal;HPM_P1;HPM_P2
2023/09/03 00:02:21;;;;;;;10.50;6.30;;;;;;;;;;4398883;32;60150;-63
2023/09/03 00:05:08;;;;;;;9.60;5.97;;;;;;;;;;4396798;32;69594;-63
2023/09/03 00:07:55;;;;;;;;;;;;;;;;;;4399079;32;69324;-63
2023/09/03 00:10:41;;;;;;;9.43;5.80;;;;;;;;;;4386667;32;66899;-63
2023/09/03 00:13:27;;;;;;;10.63;5.82;;;;;;;;;;4398397;32;70861;-63
2023/09/03 00:16:14;;;;;;;9.73;5.75;;;;;;;;;;4397385;32;65823;-63
2023/09/03 00:19:01;;;;;;;12.90;5.65;;;;;;;;;;4397149;32;69200;-63
2023/09/03 00:21:47;;;;;;;10.93;5.97;;;;;;;;;;4398602;32;67667;-64
2023/09/03 00:24:34;;;;;;;9.70;5.12;;;;;;;;;;4364305;32;72776;-62
2023/09/03 00:27:20;;;;;;;8.63;5.70;;;;;;;;;;4396586;32;66761;-63
2023/09/03 00:30:07;;;;;;;9.88;5.18;;;;;;;;;;4398324;32;66985;-63
2023/09/03 00:32:54;;;;;;;8.52;5.25;;;;;;;;;;4398608;32;59233;-63
2023/09/03 00:35:43;;;;;;;13.65;6.20;;;;;;;;;;4374767;32;70360;-63
2023/09/03 00:38:30;;;;;;;16.27;6.62;;;;;;;;;;4398185;32;69215;-63
2023/09/03 00:41:17;;;;;;;;;;;;;;;;;;4375738;32;68657;-64
2023/09/03 00:44:04;;;;;;;13.88;7.93;;;;;;;;;;4398699;32;59464;-62
2023/09/03 00:46:50;;;;;;;14.68;7.10;;;;;;;;;;4386043;32;70359;-63
2023/09/03 00:49:42;;;;;;;13.98;8.30;;;;;;;;;;4396365;32;69752;-63
2023/09/03 00:52:29;;;;;;;13.15;8.13;;;;;;;;;;4396732;32;66824;-63
2023/09/03 00:55:15;;;;;;;15.43;7.53;;;;;;;;;;4384950;32;71478;-63
2023/09/03 00:58:02;;;;;;;16.75;8.30;;;;;;;;;;4386102;32;65774;-63
2023/09/03 01:00:46;;;;;;;13.65;7.78;;;;;;;;;;3847429;37;43861;-63
2023/09/03 01:03:32;;;;;;;15.60;8.38;;;;;;;;;;4410071;32;60086;-63
2023/09/03 01:06:19;;;;;;;14.20;8.07;;;;;;;;;;4398353;32;71526;-63
2023/09/03 01:09:05;;;;;;;;;;;;;;;;;;4409548;32;69840;-62
2023/09/03 01:12:19;;;;;;;14.23;8.10;;;;;;;;;;4383114;32;68313;-63
2023/09/03 01:15:14;;;;;;;20.12;9.32;;;;;;;;;;4394188;32;74810;-63
2023/09/03 01:18:21;;;;;;;14.05;8.35;;;;;;;;;;4395556;32;66163;-63
2023/09/03 01:21:13;;;;;;;;;;;;;;;;;;4395838;32;67149;-63
2023/09/03 01:24:06;;;;;;;15.30;9.38;;;;;;;;;;4395745;32;60046;-63
2023/09/03 01:26:58;;;;;;;14.95;9.98;;;;;;;;;;4394098;32;70784;-63
2023/09/03 01:29:45;;;;;;;18.30;10.05;;;;;;;;;;4394238;32;65011;-64
2023/09/03 01:32:33;;;;;;;19.98;11.48;;;;;;;;;;4382631;32;68555;-63
2023/09/03 01:35:20;;;;;;;21.25;11.25;;;;;;;;;;4394323;32;59226;-64
2023/09/03 01:38:06;;;;;;;17.62;11.43;;;;;;;;;;4383328;32;69571;-63
2023/09/03 01:40:57;;;;;;;21.40;11.18;;;;;;;;;;4395263;32;68418;-63
2023/09/03 01:43:47;;;;;;;16.50;9.85;;;;;;;;;;4383502;32;68089;-64
2023/09/03 01:46:55;;;;;;;15.77;10.02;;;;;;;;;;4395150;32;70758;-63
2023/09/03 01:49:50;;;;;;;19.77;11.07;;;;;;;;;;4382876;32;66966;-62
2023/09/03 01:52:42;;;;;;;19.60;10.43;;;;;;;;;;4382534;32;68912;-63
2023/09/03 01:55:33;;;;;;;21.65;10.60;;;;;;;;;;4393770;32;66659;-63
2023/09/03 01:58:20;;;;;;;21.15;10.80;;;;;;;;;;4382406;32;72309;-63
2023/09/03 02:01:08;;;;;;;17.73;9.55;;;;;;;;;;4373665;32;64566;-64
2023/09/03 02:03:55;;;;;;;17.77;10.25;;;;;;;;;;4383444;32;65395;-64
2023/09/03 02:06:46;;;;;;;16.52;9.90;;;;;;;;;;4395243;32;59345;-63
2023/09/03 02:09:33;;;;;;;19.27;10.57;;;;;;;;;;4395078;32;69580;-63
2023/09/03 02:12:23;;;;;;;17.15;10.48;;;;;;;;;;4384079;32;68274;-63
2023/09/03 02:15:10;;;;;;;16.62;9.93;;;;;;;;;;4374277;32;66633;-63
2023/09/03 02:17:56;;;;;;;17.23;10.43;;;;;;;;;;4386094;32;60369;-63
2023/09/03 02:20:43;;;;;;;17.62;10.15;;;;;;;;;;4385629;32;69309;-64
2023/09/03 02:23:30;;;;;;;17.70;10.57;;;;;;;;;;4386827;32;68359;-64
2023/09/03 02:26:18;;;;;;;17.33;10.73;;;;;;;;;;4384321;32;67687;-63
2023/09/03 02:29:04;;;;;;;20.25;9.95;;;;;;;;;;4383058;32;71756;-63
2023/09/03 02:31:53;;;;;;;21.98;9.52;;;;;;;;;;4372937;32;65468;-63
2023/09/03 02:34:39;;;;;;;20.23;9.65;;;;;;;;;;4383287;32;67481;-63
2023/09/03 02:37:26;;;;;;;15.05;9.43;;;;;;;;;;4384758;32;60482;-63
2023/09/03 02:40:12;;;;;;;18.27;10.43;;;;;;;;;;4371278;32;71547;-63
2023/09/03 02:42:59;;;;;;;15.38;9.40;;;;;;;;;;4384274;32;65741;-63
2023/09/03 02:45:45;;;;;;;15.65;9.30;;;;;;;;;;4382666;32;67996;-64
2023/09/03 02:48:32;;;;;;;19.12;9.65;;;;;;;;;;4384612;32;59237;-63
2023/09/03 02:51:18;;;;;;;13.85;9.00;;;;;;;;;;4382398;32;71228;-63
2023/09/03 02:54:05;;;;;;;;;;;;;;;;;;4372752;32;69191;-63
2023/09/03 02:56:51;;;;;;;17.10;9.45;;;;;;;;;;4362128;32;67118;-63
2023/09/03 02:59:37;;;;;;;14.25;8.93;;;;;;;;;;4383584;32;71374;-63
2023/09/03 03:02:24;;;;;;;18.85;9.30;;;;;;;;;;4384226;32;66194;-63
2023/09/03 03:05:11;;;;;;;20.48;8.85;;;;;;;;;;4384314;32;67409;-63
2023/09/03 03:07:59;;;;;;;17.98;9.63;;;;;;;;;;4384104;32;67915;-63
2023/09/03 03:10:45;;;;;;;15.50;8.88;;;;;;;;;;4382494;32;71836;-63
2023/09/03 03:13:32;;;;;;;;;;;;;;;;;;4382920;32;67229;-63
2023/09/03 03:16:18;;;;;;;16.73;9.65;;;;;;;;;;4384373;32;66404;-63
2023/09/03 03:19:05;;;;;;;16.52;8.73;;;;;;;;;;4372221;32;60346;-63
2023/09/03 03:21:52;;;;;;;13.98;8.40;;;;;;;;;;4382046;32;69785;-64
2023/09/03 03:24:38;;;;;;;16.73;8.90;;;;;;;;;;4383767;32;68990;-62
2023/09/03 03:27:25;;;;;;;16.30;8.70;;;;;;;;;;4382684;32;67444;-63
2023/09/03 03:30:12;;;;;;;15.93;8.20;;;;;;;;;;4384125;32;60071;-63
2023/09/03 03:32:59;;;;;;;12.65;7.25;;;;;;;;;;4382284;32;70496;-63
2023/09/03 03:35:45;;;;;;;16.50;7.70;;;;;;;;;;4382601;32;69545;-63
2023/09/03 03:38:32;;;;;;;;;;;;;;;;;;4384182;32;66650;-63
2023/09/03 03:41:20;;;;;;;14.30;6.57;;;;;;;;;;4382372;32;71674;-63
2023/09/03 03:44:08;;;;;;;15.45;7.47;;;;;;;;;;4371431;32;65981;-63
2023/09/03 03:46:55;;;;;;;;;;;;;;;;;;4384167;32;67387;-63
2023/09/03 03:49:41;;;;;;;13.25;7.07;;;;;;;;;;4383962;32;59139;-63
2023/09/03 03:52:27;;;;;;;12.30;6.78;;;;;;;;;;4382343;32;69634;-62
2023/09/03 03:55:15;;;;;;;12.02;6.43;;;;;;;;;;4383581;32;65965;-63
2023/09/03 03:58:02;;;;;;;11.73;6.37;;;;;;;;;;4382154;32;66614;-64
2023/09/03 04:00:48;;;;;;;11.15;6.65;;;;;;;;;;4383603;32;59262;-64
2023/09/03 04:03:35;;;;;;;;;;;;;;;;;;4361609;32;70420;-63
2023/09/03 04:06:21;;;;;;;11.27;6.75;;;;;;;;;;4382209;32;69544;-62
2023/09/03 04:09:08;;;;;;;11.38;5.82;;;;;;;;;;4371679;32;67717;-63
2023/09/03 04:11:55;;;;;;;10.70;6.10;;;;;;;;;;4381437;32;71331;-63
2023/09/03 04:14:42;;;;;;;10.60;6.20;;;;;;;;;;4383318;32;66062;-62
2023/09/03 04:17:28;;;;;;;10.93;6.00;;;;;;;;;;4381825;32;64992;-63
2023/09/03 04:20:15;;;;;;;11.32;6.32;;;;;;;;;;4381950;32;67572;-62
2023/09/03 04:23:03;;;;;;;9.50;5.82;;;;;;;;;;4381823;32;70769;-63
2023/09/03 04:25:51;;;;;;;11.93;6.45;;;;;;;;;;4383488;32;66148;-64
2023/09/03 04:28:38;;;;;;;12.37;6.65;;;;;;;;;;4371555;32;67491;-63
2023/09/03 04:31:24;;;;;;;;;;;;;;;;;;4385258;32;60275;-63
2023/09/03 04:34:12;;;;;;;12.82;6.65;;;;;;;;;;4390716;32;70045;-64
2023/09/03 04:36:59;;;;;;;9.75;6.30;;;;;;;;;;4390717;32;69183;-63
2023/09/03 04:39:45;;;;;;;9.25;6.57;;;;;;;;;;4387569;32;67264;-63
2023/09/03 04:42:32;;;;;;;11.43;7.05;;;;;;;;;;4379335;32;70870;-63
2023/09/03 04:45:18;;;;;;;11.93;6.30;;;;;;;;;;4388796;32;70842;-65
2023/09/03 04:48:09;;;;;;;11.52;6.90;;;;;;;;;;4371656;32;69583;-63
2023/09/03 04:50:57;;;;;;;10.30;6.28;;;;;;;;;;4383146;32;67888;-63
2023/09/03 04:53:43;;;;;;;13.55;6.62;;;;;;;;;;4371122;32;72838;-63
2023/09/03 04:56:30;;;;;;;8.88;6.12;;;;;;;;;;4381972;32;65995;-64
2023/09/03 04:59:16;;;;;;;;;;;;;;;;;;4383182;32;67725;-64
2023/09/03 05:02:03;;;;;;;10.48;6.50;;;;;;;;;;4383460;32;59747;-62
2023/09/03 05:04:50;;;;;;;10.63;6.57;;;;;;;;;;4382819;32;70492;-63
2023/09/03 05:07:36;;;;;;;10.02;7.07;;;;;;;;;;4383255;32;69468;-63
2023/09/03 05:10:24;;;;;;;12.70;7.03;;;;;;;;;;4382086;32;66608;-62
2023/09/03 05:13:10;;;;;;;11.50;7.03;;;;;;;;;;4383043;32;60271;-63
2023/09/03 05:15:57;;;;;;;11.05;7.10;;;;;;;;;;4382916;32;70538;-62
2023/09/03 05:18:43;;;;;;;12.50;7.37;;;;;;;;;;4381758;32;69484;-63
2023/09/03 05:21:31;;;;;;;13.18;7.10;;;;;;;;;;4385143;32;67317;-63
2023/09/03 05:24:18;;;;;;;9.63;6.12;;;;;;;;;;4370973;32;72207;-65
2023/09/03 05:27:05;;;;;;;8.90;5.03;;;;;;;;;;4389516;32;64880;-63
2023/09/03 05:29:51;;;;;;;9.98;5.82;;;;;;;;;;4396603;32;66661;-64
2023/09/03 05:32:38;;;;;;;14.82;6.82;;;;;;;;;;4405341;32;60402;-63
2023/09/03 05:35:25;;;;;;;14.45;7.00;;;;;;;;;;4404940;32;71897;-63
2023/09/03 05:38:12;;;;;;;13.55;6.55;;;;;;;;;;4405087;32;66066;-64
2023/09/03 05:40:59;;;;;;;9.35;4.93;;;;;;;;;;4402836;32;68459;-63
2023/09/03 05:43:46;;;;;;;15.95;5.97;;;;;;;;;;4401991;32;59549;-62
2023/09/03 05:46:33;;;;;;;9.48;5.05;;;;;;;;;;4406735;32;69823;-64
2023/09/03 05:49:20;;;;;;;12.85;5.07;;;;;;;;;;4407621;32;68036;-65
2023/09/03 05:52:07;;;;;;;8.90;5.57;;;;;;;;;;4406474;32;68225;-64
2023/09/03 05:54:54;;;;;;;;;;;;;;;;;;4395593;32;71775;-63
2023/09/03 05:57:41;;;;;;;7.03;4.68;;;;;;;;;;4389533;32;69035;-63
2023/09/03 06:00:28;;;;;;;;;;;;;;;;;;4388088;32;68824;-63
2023/09/03 06:03:17;;;;;;;5.90;3.78;;;;;;;;;;4399559;32;67950;-63
2023/09/03 06:06:08;;;;;;;8.48;4.95;;;;;;;;;;4395582;32;69750;-63
2023/09/03 06:08:55;;;;;;;6.37;4.55;;;;;;;;;;4388298;32;65725;-63
2023/09/03 06:11:41;;;;;;;;;;;;;;;;;;4383394;32;67498;-63
2023/09/03 06:14:28;;;;;;;7.93;4.82;;;;;;;;;;4385309;32;60052;-63
2023/09/03 06:17:14;;;;;;;8.43;4.75;;;;;;;;;;4383380;32;70408;-64
2023/09/03 06:20:02;;;;;;;;;;;;;;;;;;4384946;32;69229;-63
2023/09/03 06:22:48;;;;;;;8.37;5.67;;;;;;;;;;4361762;32;68753;-63
2023/09/03 06:25:38;;;;;;;7.22;4.78;;;;;;;;;;4385070;32;60107;-63
2023/09/03 06:28:26;;;;;;;7.80;4.53;;;;;;;;;;4384614;32;69466;-62
2023/09/03 06:31:12;;;;;;;6.10;3.78;;;;;;;;;;4372951;32;69354;-63
2023/09/03 06:33:58;;;;;;;9.98;5.20;;;;;;;;;;4372665;32;66710;-64
2023/09/03 06:36:45;;;;;;;8.60;5.57;;;;;;;;;;4384495;32;71725;-63
2023/09/03 06:39:31;;;;;;;9.43;6.18;;;;;;;;;;4382723;32;65865;-64
2023/09/03 06:42:18;;;;;;;6.75;3.80;;;;;;;;;;4383159;32;67194;-63
2023/09/03 06:45:05;;;;;;;5.20;3.35;;;;;;;;;;4394031;32;59821;-63
2023/09/03 06:47:51;;;;;;;4.75;3.28;;;;;;;;;;4382896;32;71675;-63
2023/09/03 06:50:41;;;;;;;7.32;3.55;;;;;;;;;;4384460;32;66023;-63
2023/09/03 06:53:28;;;;;;;5.43;3.50;;;;;;;;;;4383350;32;67830;-63
2023/09/03 06:56:14;;;;;;;7.47;4.82;;;;;;;;;;4382714;32;59756;-63
2023/09/03 06:59:01;;;;;;;6.57;4.43;;;;;;;;;;4382060;32;70899;-63
2023/09/03 07:01:47;;;;;;;4.43;3.30;;;;;;;;;;4382966;32;68408;-63
2023/09/03 07:04:37;;;;;;;;;;;;;;;;;;4383183;32;67830;-62
2023/09/03 07:07:23;;;;;;;5.28;3.25;;;;;;;;;;4372273;32;71887;-62
2023/09/03 07:10:11;;;;;;;4.65;3.00;;;;;;;;;;4384213;32;65036;-64
2023/09/03 07:12:57;;;;;;;5.87;3.87;;;;;;;;;;4372152;32;69359;-63
2023/09/03 07:15:44;;;;;;;5.93;3.97;;;;;;;;;;4382827;32;66807;-63
2023/09/03 07:18:31;;;;;;;8.90;5.32;;;;;;;;;;4384008;32;70859;-64
2023/09/03 07:21:19;;;;;;;7.22;4.60;;;;;;;;;;4372001;32;65838;-63
2023/09/03 07:24:06;;;;;;;5.70;3.90;;;;;;;;;;4384043;32;66993;-63
2023/09/03 07:26:53;;;;;;;6.45;4.30;;;;;;;;;;4382985;32;59400;-64
2023/09/03 07:29:40;;;;;;;5.95;3.87;;;;;;;;;;4371853;32;69665;-64
2023/09/03 07:32:23;;;;;;;5.30;3.47;;;;;;;;;;3847522;37;43402;-63
2023/09/03 07:35:09;;;;;;;7.18;4.07;;;;;;;;;;4410228;32;58979;-63
2023/09/03 07:37:56;;;;;;;6.50;4.12;;;;;;;;;;4409787;32;70424;-64
2023/09/03 07:40:42;;;;;;;6.28;3.90;;;;;;;;;;4410981;32;69273;-64
2023/09/03 07:43:29;;;;;;;6.03;4.03;;;;;;;;;;4398921;32;67436;-64
2023/09/03 07:46:15;;;;;;;4.60;2.62;;;;;;;;;;4409456;32;70612;-64
2023/09/03 07:49:02;;;;;;;;;;;;;;;;;;4409968;32;66232;-63
2023/09/03 07:51:49;;;;;;;4.57;2.83;;;;;;;;;;4409716;32;67627;-63
2023/09/03 07:54:35;;;;;;;6.20;3.33;;;;;;;;;;4409756;32;59793;-63
2023/09/03 07:57:22;;;;;;;5.05;3.00;;;;;;;;;;4409510;32;70933;-63
2023/09/03 08:00:08;;;;;;;;;;;;;;;;;;4398428;32;67136;-62
2023/09/03 08:02:58;;;;;;;3.22;2.17;;;;;;;;;;4410844;32;66961;-64
2023/09/03 08:05:45;;;;;;;4.50;2.90;;;;;;;;;;4410655;32;60186;-64
2023/09/03 08:08:32;;;;;;;5.00;3.17;;;;;;;;;;4410241;32;71105;-63
2023/09/03 08:11:18;;;;;;;5.25;3.70;;;;;;;;;;4398307;32;69315;-62
2023/09/03 08:14:04;;;;;;;5.70;3.92;;;;;;;;;;4408798;32;68141;-63
2023/09/03 08:16:51;;;;;;;6.75;3.97;;;;;;;;;;4376472;32;72512;-63
2023/09/03 08:19:38;;;;;;;;;;;;;;;;;;4398485;32;66681;-63
2023/09/03 08:22:25;;;;;;;7.75;3.70;;;;;;;;;;4410504;32;69380;-62
2023/09/03 08:25:11;;;;;;;9.15;3.95;;;;;;;;;;4410510;32;67685;-64
2023/09/03 08:27:58;;;;;;;5.03;3.50;;;;;;;;;;4408525;32;72315;-63
2023/09/03 08:30:44;;;;;;;4.25;2.97;;;;;;;;;;4397948;32;65034;-63
2023/09/03 08:33:31;;;;;;;5.05;4.00;;;;;;;;;;4398418;32;67688;-63
2023/09/03 08:36:17;;;;;;;5.10;3.05;;;;;;;;;;4410737;32;59230;-63
2023/09/03 08:39:06;;;;;;;;;;;;;;;;;;4410495;32;69616;-64
2023/09/03 08:41:53;;;;;;;5.30;3.53;;;;;;;;;;4407600;32;68457;-64
2023/09/03 08:45:18;;;;;;;4.37;3.08;;;;;;;;;;4398827;32;67726;-63
2023/09/03 08:48:04;;;;;;;5.87;3.67;;;;;;;;;;4316456;32;60424;-63
2023/09/03 08:50:51;;;;;;;6.15;3.40;;;;;;;;;;4398563;32;69838;-63
2023/09/03 08:53:39;;;;;;;5.70;2.83;;;;;;;;;;4399856;32;69540;-63
2023/09/03 08:56:26;;;;;;;5.07;2.55;;;;;;;;;;4398524;32;67002;-62
2023/09/03 08:59:12;;;;;;;3.97;2.70;;;;;;;;;;4376257;32;72328;-64
2023/09/03 09:02:00;;;;;;;6.12;2.97;;;;;;;;;;4387416;32;66973;-63
2023/09/03 09:04:48;;;;;;;3.22;2.70;;;;;;;;;;4398780;32;66662;-63
2023/09/03 09:07:35;;;;;;;3.42;2.70;;;;;;;;;;4398772;32;59266;-64
2023/09/03 09:10:26;;;;;;;3.62;2.80;;;;;;;;;;4399335;32;69739;-63
2023/09/03 09:13:13;;;;;;;3.72;2.80;;;;;;;;;;4387639;32;65704;-63
2023/09/03 09:15:59;;;;;;;3.33;2.55;;;;;;;;;;4398716;32;67502;-63
2023/09/03 09:18:46;;;;;;;5.18;2.83;;;;;;;;;;4398656;32;59300;-63
2023/09/03 09:21:32;;;;;;;6.00;3.17;;;;;;;;;;4398476;32;69554;-63
2023/09/03 09:24:19;;;;;;;4.45;2.90;;;;;;;;;;4399491;32;69350;-63
2023/09/03 09:27:23;;;;;;;5.05;2.97;;;;;;;;;;4386967;32;68821;-64
2023/09/03 09:30:21;;;;;;;4.90;3.25;;;;;;;;;;4387136;32;71786;-63
2023/09/03 09:33:08;;;;;;;3.53;2.60;;;;;;;;;;4387347;32;66595;-64
2023/09/03 09:35:55;;;;;;;7.22;2.53;;;;;;;;;;4399777;32;67610;-64
2023/09/03 09:38:41;;;;;;;3.45;2.70;;;;;;;;;;4376608;32;68657;-63
2023/09/03 09:41:28;;;;;;;;;;;;;;;;;;4399664;32;71831;-63
2023/09/03 09:44:14;;;;;;;5.60;3.40;;;;;;;;;;4397656;32;68486;-63
2023/09/03 09:47:15;;;;;;;4.57;2.87;;;;;;;;;;4398183;32;67741;-63
2023/09/03 09:50:02;;;;;;;3.15;2.42;;;;;;;;;;4398035;32;60150;-63
2023/09/03 09:52:48;;;;;;;;;;;;;;;;;;4387023;32;70957;-63
2023/09/03 09:55:35;;;;;;;5.35;3.08;;;;;;;;;;4386681;32;68746;-63
2023/09/03 09:58:21;;;;;;;3.17;2.35;;;;;;;;;;4397916;32;66675;-63
2023/09/03 10:01:10;;;;;;;4.03;3.00;;;;;;;;;;4398295;32;59090;-63
2023/09/03 10:03:57;;;;;;;4.22;2.67;;;;;;;;;;4398057;32;70780;-63
2023/09/03 10:06:43;;;;;;;;;;;;;;;;;;4397982;32;69173;-62
2023/09/03 10:09:30;;;;;;;2.78;2.20;;;;;;;;;;4386386;32;67544;-64
2023/09/03 10:12:18;;;;;;;;;;;;;;;;;;4397921;32;70767;-63
2023/09/03 10:15:06;;;;;;;3.80;2.50;;;;;;;;;;4399086;32;65875;-63
2023/09/03 10:17:52;;;;;;;3.03;2.45;;;;;;;;;;4398904;32;67300;-63
2023/09/03 10:20:40;;;;;;;3.42;2.67;;;;;;;;;;4375530;32;59682;-63
2023/09/03 10:23:31;;;;;;;3.53;2.58;;;;;;;;;;4385605;32;71913;-63
2023/09/03 10:26:24;;;;;;;6.25;3.72;;;;;;;;;;4397568;32;66176;-64
2023/09/03 10:29:13;;;;;;;3.70;2.70;;;;;;;;;;4397653;32;66659;-63
2023/09/03 10:32:02;;;;;;;5.37;2.78;;;;;;;;;;4397024;32;59407;-63
2023/09/03 10:34:48;;;;;;;4.62;2.72;;;;;;;;;;4386120;32;71426;-63
2023/09/03 10:37:42;;;;;;;6.55;2.83;;;;;;;;;;4386104;32;69949;-63
2023/09/03 10:40:29;;;;;;;5.18;2.80;;;;;;;;;;4397548;32;66667;-63
2023/09/03 10:43:18;;;;;;;4.10;2.85;;;;;;;;;;4397133;32;71915;-62
2023/09/03 10:46:06;;;;;;;3.95;3.00;;;;;;;;;;4397221;32;65899;-63
2023/09/03 10:48:56;;;;;;;4.10;3.00;;;;;;;;;;4386654;32;67543;-62
2023/09/03 10:51:43;;;;;;;5.18;3.12;;;;;;;;;;4397110;32;66427;-63
2023/09/03 10:54:30;;;;;;;5.18;2.90;;;;;;;;;;4386551;32;71692;-63
2023/09/03 10:57:17;;;;;;;4.82;3.50;;;;;;;;;;4397132;32;65805;-63
2023/09/03 11:00:06;;;;;;;4.15;2.80;;;;;;;;;;4397101;32;67581;-63
2023/09/03 11:03:16;;;;;;;5.57;3.00;;;;;;;;;;4398679;32;60252;-63
2023/09/03 11:06:23;;;;;;;4.03;2.10;;;;;;;;;;4398219;32;70332;-63
2023/09/03 11:09:12;;;;;;;3.70;2.58;;;;;;;;;;4396899;32;69341;-64
2023/09/03 11:12:01;;;;;;;5.40;2.22;;;;;;;;;;4398166;32;66842;-63
2023/09/03 11:14:50;;;;;;;5.68;2.90;;;;;;;;;;4385831;32;72752;-62
2023/09/03 11:17:37;;;;;;;3.40;2.60;;;;;;;;;;4385966;32;68026;-63
2023/09/03 11:20:41;;;;;;;;;;;;;;;;;;4397328;32;69664;-64
2023/09/03 11:23:31;;;;;;;4.07;2.55;;;;;;;;;;4398257;32;68045;-62
2023/09/03 11:26:17;;;;;;;2.92;2.33;;;;;;;;;;4398190;32;71680;-63
2023/09/03 11:29:04;;;;;;;4.93;2.92;;;;;;;;;;4398210;32;66029;-64
2023/09/03 11:31:51;;;;;;;3.10;2.50;;;;;;;;;;4396463;32;67742;-63
2023/09/03 11:34:40;;;;;;;4.60;2.50;;;;;;;;;;4386175;32;59815;-63
2023/09/03 11:37:27;;;;;;;;;;;;;;;;;;4386221;32;70767;-62
2023/09/03 11:40:16;;;;;;;3.65;2.70;;;;;;;;;;4396900;32;69617;-63
2023/09/03 11:43:03;;;;;;;3.35;2.60;;;;;;;;;;4385464;32;68358;-63
2023/09/03 11:45:49;;;;;;;3.92;2.58;;;;;;;;;;4397073;32;59067;-63
2023/09/03 11:48:37;;;;;;;;;;;;;;;;;;4385809;32;71573;-64
2023/09/03 11:51:30;;;;;;;4.32;2.67;;;;;;;;;;4397948;32;68718;-63
2023/09/03 11:54:26;;;;;;;5.62;2.92;;;;;;;;;;4396531;32;67629;-64
2023/09/03 11:57:15;;;;;;;4.93;2.90;;;;;;;;;;4397588;32;70668;-64
2023/09/03 12:00:02;;;;;;;4.75;2.70;;;;;;;;;;4396518;32;66026;-63
2023/09/03 12:02:52;;;;;;;4.32;2.62;;;;;;;;;;4386002;32;67749;-64
2023/09/03 12:05:38;;;;;;;3.65;2.62;;;;;;;;;;4385045;32;60400;-63
2023/09/03 12:08:24;;;;;;;;;;;;;;;;;;4396653;32;70629;-63
2023/09/03 12:11:12;;;;;;;3.95;2.60;;;;;;;;;;4396515;32;64974;-63
2023/09/03 12:13:58;;;;;;;2.97;2.40;;;;;;;;;;4385214;32;68067;-63
2023/09/03 12:16:46;;;;;;;;;;;;;;;;;;4398274;32;60364;-63
2023/09/03 12:19:42;;;;;;;5.05;2.70;;;;;;;;;;4388441;32;70324;-63
2023/09/03 12:22:29;;;;;;;3.43;2.43;;;;;;;;;;4377564;32;69213;-63
2023/09/03 12:25:16;;;;;;;5.37;2.53;;;;;;;;;;4388271;32;67751;-63
2023/09/03 12:28:04;;;;;;;;;;;;;;;;;;4399483;32;70791;-62
2023/09/03 12:31:00;;;;;;;3.50;2.37;;;;;;;;;;4398609;32;69995;-63
2023/09/03 12:33:49;;;;;;;5.47;2.40;;;;;;;;;;4387250;32;70062;-64
2023/09/03 12:36:54;;;;;;;4.30;2.28;;;;;;;;;;4377333;32;67632;-63
2023/09/03 12:39:44;;;;;;;3.75;2.67;;;;;;;;;;4398644;32;71693;-63
2023/09/03 12:42:30;;;;;;;4.10;2.70;;;;;;;;;;4387969;32;66899;-64
2023/09/03 12:45:17;;;;;;;5.25;1.45;;;;;;;;;;4398147;32;68856;-63
2023/09/03 12:48:03;;;;;;;2.45;2.03;;;;;;;;;;4387502;32;60636;-64
2023/09/03 12:50:50;;;;;;;3.03;2.00;;;;;;;;;;4399847;32;69706;-63
2023/09/03 12:53:37;;;;;;;3.92;2.42;;;;;;;;;;4397988;32;69793;-63
2023/09/03 12:56:23;;;;;;;3.53;2.35;;;;;;;;;;4387937;32;67015;-62
2023/09/03 12:59:10;;;;;;;3.85;2.47;;;;;;;;;;4398198;32;60229;-63
2023/09/03 13:01:57;;;;;;;;;;;;;;;;;;4398642;32;70707;-63
2023/09/03 13:04:43;;;;;;;3.90;2.47;;;;;;;;;;4398686;32;68609;-63
2023/09/03 13:07:30;;;;;;;;;;;;;;;;;;4400052;32;67946;-63
2023/09/03 13:10:16;;;;;;;3.15;2.30;;;;;;;;;;4398267;32;71890;-63
2023/09/03 13:13:03;;;;;;;3.15;2.42;;;;;;;;;;4398463;32;65989;-63
2023/09/03 13:15:56;;;;;;;5.32;3.53;;;;;;;;;;4398235;32;66923;-63
2023/09/03 13:18:44;;;;;;;3.70;2.85;;;;;;;;;;4397906;32;60862;-63
2023/09/03 13:21:35;;;;;;;4.75;2.72;;;;;;;;;;4399429;32;71863;-63
2023/09/03 13:24:22;;;;;;;3.40;2.67;;;;;;;;;;4398828;32;64757;-64
2023/09/03 13:27:08;;;;;;;3.70;2.70;;;;;;;;;;4386752;32;68998;-63
2023/09/03 13:29:55;;;;;;;;;;;;;;;;;;4399784;32;60096;-62
2023/09/03 13:32:44;;;;;;;3.25;2.30;;;;;;;;;;4386949;32;69736;-63
2023/09/03 13:35:32;;;;;;;3.17;2.30;;;;;;;;;;4399340;32;69272;-63
2023/09/03 13:38:18;;;;;;;4.00;2.60;;;;;;;;;;4398090;32;66322;-63
2023/09/03 13:41:05;;;;;;;4.72;2.78;;;;;;;;;;4387274;32;70733;-63
2023/09/03 13:43:52;;;;;;;4.65;2.75;;;;;;;;;;4398201;32;65792;-63
2023/09/03 13:46:39;;;;;;;4.72;2.55;;;;;;;;;;4398092;32;68537;-64
2023/09/03 13:49:26;;;;;;;;;;;;;;;;;;4398411;32;67833;-63
2023/09/03 13:52:12;;;;;;;4.80;2.80;;;;;;;;;;4399195;32;71040;-62
2023/09/03 13:54:59;;;;;;;5.18;3.10;;;;;;;;;;4399286;32;65009;-63
2023/09/03 13:57:45;;;;;;;6.70;2.87;;;;;;;;;;4398570;32;67295;-63
2023/09/03 14:00:32;;;;;;;2.85;1.83;;;;;;;;;;4403849;32;59956;-62
2023/09/03 14:03:19;;;;;;;3.78;2.33;;;;;;;;;;4404194;32;69977;-63
2023/09/03 14:06:06;;;;;;;5.20;3.28;;;;;;;;;;4403854;32;69220;-63
2023/09/03 14:08:53;;;;;;;3.87;2.83;;;;;;;;;;4403842;32;67643;-63
2023/09/03 14:11:39;;;;;;;;;;;;;;;;;;4380381;32;60141;-65
2023/09/03 14:14:27;;;;;;;3.77;2.87;;;;;;;;;;4400206;32;69616;-63
2023/09/03 14:17:13;;;;;;;3.50;2.95;;;;;;;;;;4399833;32;69573;-63
2023/09/03 14:19:59;;;;;;;5.45;3.30;;;;;;;;;;4400580;32;66743;-64
2023/09/03 14:22:47;;;;;;;5.57;3.28;;;;;;;;;;4398641;32;70990;-63
2023/09/03 14:25:35;;;;;;;5.60;2.90;;;;;;;;;;4398750;32;65834;-64
2023/09/03 14:28:21;;;;;;;6.50;3.80;;;;;;;;;;4397596;32;67959;-63
2023/09/03 14:31:08;;;;;;;5.97;3.95;;;;;;;;;;4386169;32;60999;-63
2023/09/03 14:33:55;;;;;;;;;;;;;;;;;;4398811;32;70368;-62
2023/09/03 14:36:41;;;;;;;7.50;3.20;;;;;;;;;;4398890;32;65530;-63
2023/09/03 14:39:27;;;;;;;5.28;3.83;;;;;;;;;;4397563;32;68103;-64
2023/09/03 14:42:14;;;;;;;6.25;4.12;;;;;;;;;;4397127;32;60079;-63
2023/09/03 14:45:02;;;;;;;7.03;3.67;;;;;;;;;;4364916;32;70964;-63
2023/09/03 14:47:48;;;;;;;7.07;4.25;;;;;;;;;;4397193;32;69192;-64
2023/09/03 14:50:36;;;;;;;10.18;4.35;;;;;;;;;;4397311;32;66936;-63
2023/09/03 14:53:23;;;;;;;5.55;3.50;;;;;;;;;;4396964;32;70789;-63
2023/09/03 14:56:11;;;;;;;7.80;4.15;;;;;;;;;;4398690;32;66152;-63
2023/09/03 14:59:19;;;;;;;8.95;4.97;;;;;;;;;;3846153;37;43646;-63
2023/09/03 15:02:06;;;;;;;8.15;4.95;;;;;;;;;;4388660;32;59089;-63
2023/09/03 15:04:52;;;;;;;;;;;;;;;;;;4399125;32;69719;-64
2023/09/03 15:07:39;;;;;;;9.43;5.62;;;;;;;;;;4399395;32;68424;-64
2023/09/03 15:10:30;;;;;;;13.43;7.10;;;;;;;;;;4398962;32;66581;-63
2023/09/03 15:13:17;;;;;;;10.68;6.55;;;;;;;;;;4410785;32;71885;-63
2023/09/03 15:16:03;;;;;;;12.15;7.05;;;;;;;;;;4374440;32;66352;-63
2023/09/03 15:18:50;;;;;;;12.68;7.03;;;;;;;;;;4374681;32;67275;-63
2023/09/03 15:21:37;;;;;;;13.45;6.70;;;;;;;;;;4411103;32;60094;-64
2023/09/03 15:24:24;;;;;;;15.32;6.57;;;;;;;;;;4398661;32;70925;-63
2023/09/03 15:27:10;;;;;;;9.88;5.78;;;;;;;;;;4388106;32;65599;-63
2023/09/03 15:29:57;;;;;;;;;;;;;;;;;;4398908;32;67814;-63
2023/09/03 15:32:43;;;;;;;10.05;5.28;;;;;;;;;;4411006;32;58746;-63
2023/09/03 15:35:30;;;;;;;9.80;5.43;;;;;;;;;;4398453;32;70299;-63
2023/09/03 15:38:17;;;;;;;9.07;4.78;;;;;;;;;;4398506;32;69297;-64
2023/09/03 15:41:04;;;;;;;9.20;5.20;;;;;;;;;;4410510;32;66518;-63
2023/09/03 15:43:53;;;;;;;8.57;5.03;;;;;;;;;;4398678;32;70736;-62
2023/09/03 15:46:39;;;;;;;;;;;;;;;;;;4411086;32;65001;-63
2023/09/03 15:49:25;;;;;;;9.27;5.30;;;;;;;;;;4410585;32;68739;-62
2023/09/03 15:52:14;;;;;;;10.27;5.43;;;;;;;;;;4398397;32;67696;-63
2023/09/03 15:55:01;;;;;;;10.70;4.97;;;;;;;;;;4398250;32;70724;-63
2023/09/03 15:57:47;;;;;;;;;;;;;;;;;;4410500;32;65012;-63
2023/09/03 16:00:37;;;;;;;8.45;5.15;;;;;;;;;;4398558;32;67785;-63
2023/09/03 16:03:24;;;;;;;8.85;5.35;;;;;;;;;;4410439;32;60369;-63
2023/09/03 16:06:10;;;;;;;;;;;;;;;;;;4410515;32;70616;-62
2023/09/03 16:08:57;;;;;;;9.85;5.25;;;;;;;;;;4392507;32;69812;-62
2023/09/03 16:11:46;;;;;;;9.73;4.68;;;;;;;;;;4399882;32;66516;-63
2023/09/03 16:14:32;;;;;;;10.00;4.97;;;;;;;;;;4375117;32;60687;-63
2023/09/03 16:17:20;;;;;;;14.75;6.32;;;;;;;;;;4377240;32;70628;-63
2023/09/03 16:20:07;;;;;;;11.70;6.12;;;;;;;;;;4374722;32;69810;-63
2023/09/03 16:22:53;;;;;;;9.75;5.93;;;;;;;;;;4387940;32;67653;-64
2023/09/03 16:25:40;;;;;;;14.05;6.78;;;;;;;;;;4387693;32;71605;-63
2023/09/03 16:28:27;;;;;;;12.25;6.53;;;;;;;;;;4377492;32;65814;-63
2023/09/03 16:31:13;;;;;;;11.50;6.87;;;;;;;;;;4399693;32;66737;-63
2023/09/03 16:34:51;;;;;;;18.15;8.65;;;;;;;;;;3846158;37;43383;-62
2023/09/03 16:37:39;;;;;;;19.83;8.63;;;;;;;;;;4411290;32;59210;-63
2023/09/03 16:40:25;;;;;;;12.98;8.07;;;;;;;;;;4411033;32;69690;-63
2023/09/03 16:43:13;;;;;;;16.65;8.73;;;;;;;;;;4411020;32;68223;-62
2023/09/03 16:45:59;;;;;;;16.83;9.98;;;;;;;;;;4411017;32;66827;-63
2023/09/03 16:48:46;;;;;;;17.60;9.93;;;;;;;;;;4374397;32;68950;-63
2023/09/03 16:51:44;;;;;;;;;;;;;;;;;;4399445;32;65975;-63
2023/09/03 16:54:31;;;;;;;15.98;8.00;;;;;;;;;;4399278;32;66454;-63
2023/09/03 16:57:17;;;;;;;13.52;7.40;;;;;;;;;;4385158;32;59846;-64